CheckWX is a tool to help pilots better visualize weather data.  It is not intended as a substitute for an official pre-flight weather briefing.

22:30:00 UTC

EHAK METAR
A12-cpp Sea
A12-cpp Sea, The Netherlands
Current

35 mins ago

EHAK 022155Z AUTO 32007KT 290V010 9999 SCT024/// SCT030/// 13/07 Q1013
Observed
Jul-2 @ 21:55 UTC
Wind
  • 320° at 7 KTS
Visibility
10,000+ meters
Flight Rules
VFR
Cloud Levels
  • Scattered at 2,400' AGL
  • Scattered at 3,000' AGL
Temperature
13°C / 55°F
Dewpoint
C / 45°F
Humidity
67%
Altimeter
29.91" Hg
Pressure
1012.92 hPa
Previous

1 hour ago

EHAK 022125Z AUTO 33006KT 280V010 9999 FEW024/// 13/07 Q1012
Observed
Jul-2 @ 21:25 UTC
Wind
  • 330° at 6 KTS
Visibility
10,000+ meters
Flight Rules
VFR
Cloud Levels
  • Few at 2,400' AGL
Temperature
13°C / 55°F
Dewpoint
C / 45°F
Humidity
67%
Altimeter
29.88" Hg
Pressure
1011.92 hPa
Previous

2 hours ago

EHAK 022055Z AUTO 32006KT 9999 NCD 13/06 Q1012
Observed
Jul-2 @ 20:55 UTC
Wind
  • 320° at 6 KTS
Visibility
10,000+ meters
Flight Rules
VFR
Cloud Levels
  • Clear skies
Temperature
13°C / 55°F
Dewpoint
C / 43°F
Humidity
63%
Altimeter
29.88" Hg
Pressure
1011.92 hPa